Aviation Digital Data Service (ADDS)

Output produced by METARs form (0551 UTC 16 February 2019)
found at http://www.aviationweather.gov/metar/data/
 
METAR text: UGSB 160530Z 26013KT 9999 -RA SCT013 BKN025 08/06 Q1022 R13/2///55 NOSIG
Conditions at: UGSB (BATUMI , GE) observed 0530 UTC 16 February 2019
Temperature: 8.0°C (46°F)
Dewpoint: 6.0°C (43°F) [RH = 87%]
Pressure (altimeter): 30.18 inches Hg (1022.0 mb)
Winds: from the W (260 degrees) at 15 MPH (13 knots; 6.7 m/s)
Visibility: 6 or more miles (10+ km)
Ceiling: 2500 feet AGL
Clouds: scattered clouds at 1300 feet AGL
broken clouds at 2500 feet AGL
Weather: -RA  (light rain)

METAR text: UGSB 160500Z 25015KT 9999 -RA SCT013 BKN021 08/06 Q1021 R13/2///55 NOSIG
Conditions at: UGSB (BATUMI , GE) observed 0500 UTC 16 February 2019
Temperature: 8.0°C (46°F)
Dewpoint: 6.0°C (43°F) [RH = 87%]
Pressure (altimeter): 30.15 inches Hg (1021.0 mb)
Winds: from the WSW (250 degrees) at 17 MPH (15 knots; 7.7 m/s)
Visibility: 6 or more miles (10+ km)
Ceiling: 2100 feet AGL
Clouds: scattered clouds at 1300 feet AGL
broken clouds at 2100 feet AGL
Weather: -RA  (light rain)

METAR text: UGSB 160430Z 26012KT 8000 -RA SCT010 BKN018 08/07 Q1021 R13/2///55 NOSIG
Conditions at: UGSB (BATUMI , GE) observed 0430 UTC 16 February 2019
Temperature: 8.0°C (46°F)
Dewpoint: 7.0°C (45°F) [RH = 93%]
Pressure (altimeter): 30.15 inches Hg (1021.0 mb)
Winds: from the W (260 degrees) at 14 MPH (12 knots; 6.2 m/s)
Visibility: 5 miles ( 8 km)
Ceiling: 1800 feet AGL
Clouds: scattered clouds at 1000 feet AGL
broken clouds at 1800 feet AGL
Weather: -RA  (light rain)

METAR text: UGSB 160400Z 21009KT 180V240 8000 -SHRA SCT010 BKN016CB 07/06 Q1020 R13/2///55 NOSIG
Conditions at: UGSB (BATUMI , GE) observed 0400 UTC 16 February 2019
Temperature: 7.0°C (45°F)
Dewpoint: 6.0°C (43°F) [RH = 93%]
Pressure (altimeter): 30.12 inches Hg (1020.0 mb)
Winds: from the SSW (210 degrees) at 10 MPH (9 knots; 4.6 m/s)
Visibility: 5 miles ( 8 km)
Ceiling: 1600 feet AGL
Clouds: scattered clouds at 1000 feet AGL
broken clouds at 1600 feet AGL
Weather: -SHRA  (light rain showers)

METAR text: UGSB 160330Z 20008KT 9999 -SHRA SCT010 BKN017CB 07/06 Q1020 R13/2///55 NOSIG
Conditions at: UGSB (BATUMI , GE) observed 0330 UTC 16 February 2019
Temperature: 7.0°C (45°F)
Dewpoint: 6.0°C (43°F) [RH = 93%]
Pressure (altimeter): 30.12 inches Hg (1020.0 mb)
Winds: from the SSW (200 degrees) at 9 MPH (8 knots; 4.1 m/s)
Visibility: 6 or more miles (10+ km)
Ceiling: 1700 feet AGL
Clouds: scattered clouds at 1000 feet AGL
broken clouds at 1700 feet AGL
Weather: -SHRA  (light rain showers)

METAR text: UGSB 160300Z 18005KT 140V240 9999 -SHRA SCT014 BKN021CB 06/05 Q1020 R13/2///55 NOSIG
Conditions at: UGSB (BATUMI , GE) observed 0300 UTC 16 February 2019
Temperature: 6.0°C (43°F)
Dewpoint: 5.0°C (41°F) [RH = 93%]
Pressure (altimeter): 30.12 inches Hg (1020.0 mb)
Winds: from the S (180 degrees) at 6 MPH (5 knots; 2.6 m/s)
Visibility: 6 or more miles (10+ km)
Ceiling: 2100 feet AGL
Clouds: scattered clouds at 1400 feet AGL
broken clouds at 2100 feet AGL
Weather: -SHRA  (light rain showers)

METAR text: UGSB 160230Z 18005KT 6000 -SHRA SCT014 BKN024CB 06/06 Q1020 R13/2///55 NOSIG
Conditions at: UGSB (BATUMI , GE) observed 0230 UTC 16 February 2019
Temperature: 6.0°C (43°F)
Dewpoint: 6.0°C (43°F) [RH = 100%]
Pressure (altimeter): 30.12 inches Hg (1020.0 mb)
Winds: from the S (180 degrees) at 6 MPH (5 knots; 2.6 m/s)
Visibility: 4 miles ( 6 km)
Ceiling: 2400 feet AGL
Clouds: scattered clouds at 1400 feet AGL
broken clouds at 2400 feet AGL
Weather: -SHRA  (light rain showers)

METAR text: UGSB 160200Z 17005KT 6000 -SHRA SCT014 BKN024CB 06/05 Q1020 R13/2///55 NOSIG
Conditions at: UGSB (BATUMI , GE) observed 0200 UTC 16 February 2019
Temperature: 6.0°C (43°F)
Dewpoint: 5.0°C (41°F) [RH = 93%]
Pressure (altimeter): 30.12 inches Hg (1020.0 mb)
Winds: from the S (170 degrees) at 6 MPH (5 knots; 2.6 m/s)
Visibility: 4 miles ( 6 km)
Ceiling: 2400 feet AGL
Clouds: scattered clouds at 1400 feet AGL
broken clouds at 2400 feet AGL
Weather: -SHRA  (light rain showers)

METAR text: UGSB 160130Z 19005KT 160V230 9000 -SHRA SCT015 BKN024CB 07/05 Q1020 R13/2///55 NOSIG
Conditions at: UGSB (BATUMI , GE) observed 0130 UTC 16 February 2019
Temperature: 7.0°C (45°F)
Dewpoint: 5.0°C (41°F) [RH = 87%]
Pressure (altimeter): 30.12 inches Hg (1020.0 mb)
Winds: from the S (190 degrees) at 6 MPH (5 knots; 2.6 m/s)
Visibility: 6 miles ( 9 km)
Ceiling: 2400 feet AGL
Clouds: scattered clouds at 1500 feet AGL
broken clouds at 2400 feet AGL
Weather: -SHRA  (light rain showers)

METAR text: UGSB 160100Z 16005KT 140V210 9999 FEW011 BKN018CB 06/06 Q1020 R13/2///55 NOSIG
Conditions at: UGSB (BATUMI , GE) observed 0100 UTC 16 February 2019
Temperature: 6.0°C (43°F)
Dewpoint: 6.0°C (43°F) [RH = 100%]
Pressure (altimeter): 30.12 inches Hg (1020.0 mb)
Winds: from the SSE (160 degrees) at 6 MPH (5 knots; 2.6 m/s)
Visibility: 6 or more miles (10+ km)
Ceiling: 1800 feet AGL
Clouds: few clouds at 1100 feet AGL
broken clouds at 1800 feet AGL
Weather: no significant weather observed at this time

METAR text: UGSB 160030Z 18004KT 6000 -SHRA FEW011 BKN020CB 06/05 Q1020 R13/2///55 NOSIG
Conditions at: UGSB (BATUMI , GE) observed 0030 UTC 16 February 2019
Temperature: 6.0°C (43°F)
Dewpoint: 5.0°C (41°F) [RH = 93%]
Pressure (altimeter): 30.12 inches Hg (1020.0 mb)
Winds: from the S (180 degrees) at 5 MPH (4 knots; 2.1 m/s)
Visibility: 4 miles ( 6 km)
Ceiling: 2000 feet AGL
Clouds: few clouds at 1100 feet AGL
broken clouds at 2000 feet AGL
Weather: -SHRA  (light rain showers)

METAR text: UGSB 160000Z 15004KT 130V220 6000 -SHRA FEW014 BKN020CB 06/06 Q1020 R13/2///55 NOSIG
Conditions at: UGSB (BATUMI , GE) observed 0000 UTC 16 February 2019
Temperature: 6.0°C (43°F)
Dewpoint: 6.0°C (43°F) [RH = 100%]
Pressure (altimeter): 30.12 inches Hg (1020.0 mb)
Winds: from the SSE (150 degrees) at 5 MPH (4 knots; 2.1 m/s)
Visibility: 4 miles ( 6 km)
Ceiling: 2000 feet AGL
Clouds: few clouds at 1400 feet AGL
broken clouds at 2000 feet AGL
Weather: -SHRA  (light rain showers)

METAR text: UGSB 152330Z 15005KT 9000 -SHRA FEW018 BKN025CB 06/05 Q1020 R13/2///55 NOSIG
Conditions at: UGSB (BATUMI , GE) observed 2330 UTC 15 February 2019
Temperature: 6.0°C (43°F)
Dewpoint: 5.0°C (41°F) [RH = 93%]
Pressure (altimeter): 30.12 inches Hg (1020.0 mb)
Winds: from the SSE (150 degrees) at 6 MPH (5 knots; 2.6 m/s)
Visibility: 6 miles ( 9 km)
Ceiling: 2500 feet AGL
Clouds: few clouds at 1800 feet AGL
broken clouds at 2500 feet AGL
Weather: -SHRA  (light rain showers)

METAR text: UGSB 152300Z 16005KT 9999 -SHRA BKN023CB 06/05 Q1020 R13/2///55 NOSIG
Conditions at: UGSB (BATUMI , GE) observed 2300 UTC 15 February 2019
Temperature: 6.0°C (43°F)
Dewpoint: 5.0°C (41°F) [RH = 93%]
Pressure (altimeter): 30.12 inches Hg (1020.0 mb)
Winds: from the SSE (160 degrees) at 6 MPH (5 knots; 2.6 m/s)
Visibility: 6 or more miles (10+ km)
Ceiling: 2300 feet AGL
Clouds: broken clouds at 2300 feet AGL
Weather: -SHRA  (light rain showers)

METAR text: UGSB 152230Z 18006KT 9999 -SHRA FEW014 BKN019CB 07/05 Q1020 R13/2///55 NOSIG
Conditions at: UGSB (BATUMI , GE) observed 2230 UTC 15 February 2019
Temperature: 7.0°C (45°F)
Dewpoint: 5.0°C (41°F) [RH = 87%]
Pressure (altimeter): 30.12 inches Hg (1020.0 mb)
Winds: from the S (180 degrees) at 7 MPH (6 knots; 3.1 m/s)
Visibility: 6 or more miles (10+ km)
Ceiling: 1900 feet AGL
Clouds: few clouds at 1400 feet AGL
broken clouds at 1900 feet AGL
Weather: -SHRA  (light rain showers)

METAR text: UGSB 152200Z 22006KT 9999 -SHRA BKN015CB 07/06 Q1020 R13/2///55 NOSIG
Conditions at: UGSB (BATUMI , GE) observed 2200 UTC 15 February 2019
Temperature: 7.0°C (45°F)
Dewpoint: 6.0°C (43°F) [RH = 93%]
Pressure (altimeter): 30.12 inches Hg (1020.0 mb)
Winds: from the SW (220 degrees) at 7 MPH (6 knots; 3.1 m/s)
Visibility: 6 or more miles (10+ km)
Ceiling: 1500 feet AGL
Clouds: broken clouds at 1500 feet AGL
Weather: -SHRA  (light rain showers)

METAR text: UGSB 152130Z 17003KT 9999 -SHRA BKN020CB 07/06 Q1020 R13/2///55 NOSIG
Conditions at: UGSB (BATUMI , GE) observed 2130 UTC 15 February 2019
Temperature: 7.0°C (45°F)
Dewpoint: 6.0°C (43°F) [RH = 93%]
Pressure (altimeter): 30.12 inches Hg (1020.0 mb)
Winds: from the S (170 degrees) at 3 MPH (3 knots; 1.5 m/s)
Visibility: 6 or more miles (10+ km)
Ceiling: 2000 feet AGL
Clouds: broken clouds at 2000 feet AGL
Weather: -SHRA  (light rain showers)

METAR text: UGSB 152100Z 17003KT 130V200 9999 -SHRA BKN020CB 07/06 Q1020 R13/2///55 NOSIG
Conditions at: UGSB (BATUMI , GE) observed 2100 UTC 15 February 2019
Temperature: 7.0°C (45°F)
Dewpoint: 6.0°C (43°F) [RH = 93%]
Pressure (altimeter): 30.12 inches Hg (1020.0 mb)
Winds: from the S (170 degrees) at 3 MPH (3 knots; 1.5 m/s)
Visibility: 6 or more miles (10+ km)
Ceiling: 2000 feet AGL
Clouds: broken clouds at 2000 feet AGL
Weather: -SHRA  (light rain showers)

METAR text: UGSB 152030Z 16003KT 130V210 9999 -SHRA BKN019CB 07/06 Q1020 R13/2///55 NOSIG
Conditions at: UGSB (BATUMI , GE) observed 2030 UTC 15 February 2019
Temperature: 7.0°C (45°F)
Dewpoint: 6.0°C (43°F) [RH = 93%]
Pressure (altimeter): 30.12 inches Hg (1020.0 mb)
Winds: from the SSE (160 degrees) at 3 MPH (3 knots; 1.5 m/s)
Visibility: 6 or more miles (10+ km)
Ceiling: 1900 feet AGL
Clouds: broken clouds at 1900 feet AGL
Weather: -SHRA  (light rain showers)

METAR text: UGSB 152000Z 15004KT 110V190 9999 -SHRA BKN016CB 07/06 Q1020 R13/2///55 NOSIG
Conditions at: UGSB (BATUMI , GE) observed 2000 UTC 15 February 2019
Temperature: 7.0°C (45°F)
Dewpoint: 6.0°C (43°F) [RH = 93%]
Pressure (altimeter): 30.12 inches Hg (1020.0 mb)
Winds: from the SSE (150 degrees) at 5 MPH (4 knots; 2.1 m/s)
Visibility: 6 or more miles (10+ km)
Ceiling: 1600 feet AGL
Clouds: broken clouds at 1600 feet AGL
Weather: -SHRA  (light rain showers)

METAR text: UGSB 151930Z 17004KT 6000 -SHRA BKN017CB 07/06 Q1020 R13/2///55 NOSIG
Conditions at: UGSB (BATUMI , GE) observed 1930 UTC 15 February 2019
Temperature: 7.0°C (45°F)
Dewpoint: 6.0°C (43°F) [RH = 93%]
Pressure (altimeter): 30.12 inches Hg (1020.0 mb)
Winds: from the S (170 degrees) at 5 MPH (4 knots; 2.1 m/s)
Visibility: 4 miles ( 6 km)
Ceiling: 1700 feet AGL
Clouds: broken clouds at 1700 feet AGL
Weather: -SHRA  (light rain showers)

METAR text: UGSB 151900Z 17003KT 140V200 7000 -SHRA FEW014 BKN021CB 07/06 Q1020 R13/2///55 NOSIG
Conditions at: UGSB (BATUMI , GE) observed 1900 UTC 15 February 2019
Temperature: 7.0°C (45°F)
Dewpoint: 6.0°C (43°F) [RH = 93%]
Pressure (altimeter): 30.12 inches Hg (1020.0 mb)
Winds: from the S (170 degrees) at 3 MPH (3 knots; 1.5 m/s)
Visibility: 4 miles ( 7 km)
Ceiling: 2100 feet AGL
Clouds: few clouds at 1400 feet AGL
broken clouds at 2100 feet AGL
Weather: -SHRA  (light rain showers)

METAR text: UGSB 151830Z 18004KT 150V250 6000 -RA FEW014 BKN020 07/06 Q1020 R13/2///55 NOSIG
Conditions at: UGSB (BATUMI , GE) observed 1830 UTC 15 February 2019
Temperature: 7.0°C (45°F)
Dewpoint: 6.0°C (43°F) [RH = 93%]
Pressure (altimeter): 30.12 inches Hg (1020.0 mb)
Winds: from the S (180 degrees) at 5 MPH (4 knots; 2.1 m/s)
Visibility: 4 miles ( 6 km)
Ceiling: 2000 feet AGL
Clouds: few clouds at 1400 feet AGL
broken clouds at 2000 feet AGL
Weather: -RA  (light rain)

METAR text: UGSB 151800Z 20006KT 9999 -RA FEW014 BKN025 07/06 Q1020 R13/2///55 NOSIG
Conditions at: UGSB (BATUMI , GE) observed 1800 UTC 15 February 2019
Temperature: 7.0°C (45°F)
Dewpoint: 6.0°C (43°F) [RH = 93%]
Pressure (altimeter): 30.12 inches Hg (1020.0 mb)
Winds: from the SSW (200 degrees) at 7 MPH (6 knots; 3.1 m/s)
Visibility: 6 or more miles (10+ km)
Ceiling: 2500 feet AGL
Clouds: few clouds at 1400 feet AGL
broken clouds at 2500 feet AGL
Weather: -RA  (light rain)

METAR text: UGSB 151730Z 21007KT 8000 -RA FEW015 BKN023 07/06 Q1020 R13/2///55 NOSIG
Conditions at: UGSB (BATUMI , GE) observed 1730 UTC 15 February 2019
Temperature: 7.0°C (45°F)
Dewpoint: 6.0°C (43°F) [RH = 93%]
Pressure (altimeter): 30.12 inches Hg (1020.0 mb)
Winds: from the SSW (210 degrees) at 8 MPH (7 knots; 3.6 m/s)
Visibility: 5 miles ( 8 km)
Ceiling: 2300 feet AGL
Clouds: few clouds at 1500 feet AGL
broken clouds at 2300 feet AGL
Weather: -RA  (light rain)

METAR text: UGSB 151700Z 21009KT 9999 -RA FEW013 BKN023 07/06 Q1020 R13/2///55 NOSIG
Conditions at: UGSB (BATUMI , GE) observed 1700 UTC 15 February 2019
Temperature: 7.0°C (45°F)
Dewpoint: 6.0°C (43°F) [RH = 93%]
Pressure (altimeter): 30.12 inches Hg (1020.0 mb)
Winds: from the SSW (210 degrees) at 10 MPH (9 knots; 4.6 m/s)
Visibility: 6 or more miles (10+ km)
Ceiling: 2300 feet AGL
Clouds: few clouds at 1300 feet AGL
broken clouds at 2300 feet AGL
Weather: -RA  (light rain)

METAR text: UGSB 151630Z 24011KT 6000 -RA SCT009 BKN023 07/06 Q1019 R13/2///55 NOSIG
Conditions at: UGSB (BATUMI , GE) observed 1630 UTC 15 February 2019
Temperature: 7.0°C (45°F)
Dewpoint: 6.0°C (43°F) [RH = 93%]
Pressure (altimeter): 30.09 inches Hg (1019.0 mb)
Winds: from the WSW (240 degrees) at 13 MPH (11 knots; 5.7 m/s)
Visibility: 4 miles ( 6 km)
Ceiling: 2300 feet AGL
Clouds: scattered clouds at 900 feet AGL
broken clouds at 2300 feet AGL
Weather: -RA  (light rain)

METAR text: UGSB 151600Z 23010KT 190V260 9000 -RA SCT008 BKN023 08/07 Q1019 R13/2///55 NOSIG
Conditions at: UGSB (BATUMI , GE) observed 1600 UTC 15 February 2019
Temperature: 8.0°C (46°F)
Dewpoint: 7.0°C (45°F) [RH = 93%]
Pressure (altimeter): 30.09 inches Hg (1019.0 mb)
Winds: from the SW (230 degrees) at 12 MPH (10 knots; 5.1 m/s)
Visibility: 6 miles ( 9 km)
Ceiling: 2300 feet AGL
Clouds: scattered clouds at 800 feet AGL
broken clouds at 2300 feet AGL
Weather: -RA  (light rain)

METAR text: UGSB 151530Z 23009KT 9999 -RA SCT008 BKN024 08/07 Q1019 R13/2///55 NOSIG
Conditions at: UGSB (BATUMI , GE) observed 1530 UTC 15 February 2019
Temperature: 8.0°C (46°F)
Dewpoint: 7.0°C (45°F) [RH = 93%]
Pressure (altimeter): 30.09 inches Hg (1019.0 mb)
Winds: from the SW (230 degrees) at 10 MPH (9 knots; 4.6 m/s)
Visibility: 6 or more miles (10+ km)
Ceiling: 2400 feet AGL
Clouds: scattered clouds at 800 feet AGL
broken clouds at 2400 feet AGL
Weather: -RA  (light rain)

METAR text: UGSB 151500Z 22009KT 9999 -RA SCT008 BKN020 08/07 Q1018 R13/2///55 NOSIG
Conditions at: UGSB (BATUMI , GE) observed 1500 UTC 15 February 2019
Temperature: 8.0°C (46°F)
Dewpoint: 7.0°C (45°F) [RH = 93%]
Pressure (altimeter): 30.06 inches Hg (1018.0 mb)
Winds: from the SW (220 degrees) at 10 MPH (9 knots; 4.6 m/s)
Visibility: 6 or more miles (10+ km)
Ceiling: 2000 feet AGL
Clouds: scattered clouds at 800 feet AGL
broken clouds at 2000 feet AGL
Weather: -RA  (light rain)

METAR text: UGSB 151430Z 23008KT 7000 -RA SCT012 BKN020 08/07 Q1018 R13/////// NOSIG
Conditions at: UGSB (BATUMI , GE) observed 1430 UTC 15 February 2019
Temperature: 8.0°C (46°F)
Dewpoint: 7.0°C (45°F) [RH = 93%]
Pressure (altimeter): 30.06 inches Hg (1018.0 mb)
Winds: from the SW (230 degrees) at 9 MPH (8 knots; 4.1 m/s)
Visibility: 4 miles ( 7 km)
Ceiling: 2000 feet AGL
Clouds: scattered clouds at 1200 feet AGL
broken clouds at 2000 feet AGL
Weather: -RA  (light rain)

METAR text: UGSB 151400Z 25006KT 9999 -RA SCT012 BKN024 08/07 Q1018 NOSIG
Conditions at: UGSB (BATUMI , GE) observed 1400 UTC 15 February 2019
Temperature: 8.0°C (46°F)
Dewpoint: 7.0°C (45°F) [RH = 93%]
Pressure (altimeter): 30.06 inches Hg (1018.0 mb)
Winds: from the WSW (250 degrees) at 7 MPH (6 knots; 3.1 m/s)
Visibility: 6 or more miles (10+ km)
Ceiling: 2400 feet AGL
Clouds: scattered clouds at 1200 feet AGL
broken clouds at 2400 feet AGL
Weather: -RA  (light rain)

METAR text: UGSB 151330Z 26006KT 9999 SCT011 BKN030 08/06 Q1018 NOSIG
Conditions at: UGSB (BATUMI , GE) observed 1330 UTC 15 February 2019
Temperature: 8.0°C (46°F)
Dewpoint: 6.0°C (43°F) [RH = 87%]
Pressure (altimeter): 30.06 inches Hg (1018.0 mb)
Winds: from the W (260 degrees) at 7 MPH (6 knots; 3.1 m/s)
Visibility: 6 or more miles (10+ km)
Ceiling: 3000 feet AGL
Clouds: scattered clouds at 1100 feet AGL
broken clouds at 3000 feet AGL
Weather: no significant weather observed at this time

METAR text: UGSB 151300Z 25006KT 9999 FEW010 BKN025 08/06 Q1018 NOSIG
Conditions at: UGSB (BATUMI , GE) observed 1300 UTC 15 February 2019
Temperature: 8.0°C (46°F)
Dewpoint: 6.0°C (43°F) [RH = 87%]
Pressure (altimeter): 30.06 inches Hg (1018.0 mb)
Winds: from the WSW (250 degrees) at 7 MPH (6 knots; 3.1 m/s)
Visibility: 6 or more miles (10+ km)
Ceiling: 2500 feet AGL
Clouds: few clouds at 1000 feet AGL
broken clouds at 2500 feet AGL
Weather: no significant weather observed at this time

METAR text: UGSB 151230Z 24005KT 9999 BKN025 08/06 Q1018 NOSIG
Conditions at: UGSB (BATUMI , GE) observed 1230 UTC 15 February 2019
Temperature: 8.0°C (46°F)
Dewpoint: 6.0°C (43°F) [RH = 87%]
Pressure (altimeter): 30.06 inches Hg (1018.0 mb)
Winds: from the WSW (240 degrees) at 6 MPH (5 knots; 2.6 m/s)
Visibility: 6 or more miles (10+ km)
Ceiling: 2500 feet AGL
Clouds: broken clouds at 2500 feet AGL
Weather: no significant weather observed at this time

METAR text: UGSB 151200Z 25006KT 9999 FEW011 BKN025 08/06 Q1018 NOSIG
Conditions at: UGSB (BATUMI , GE) observed 1200 UTC 15 February 2019
Temperature: 8.0°C (46°F)
Dewpoint: 6.0°C (43°F) [RH = 87%]
Pressure (altimeter): 30.06 inches Hg (1018.0 mb)
Winds: from the WSW (250 degrees) at 7 MPH (6 knots; 3.1 m/s)
Visibility: 6 or more miles (10+ km)
Ceiling: 2500 feet AGL
Clouds: few clouds at 1100 feet AGL
broken clouds at 2500 feet AGL
Weather: no significant weather observed at this time

METAR text: UGSB 151130Z 24007KT 9999 FEW010 BKN026 09/06 Q1017 NOSIG
Conditions at: UGSB (BATUMI , GE) observed 1130 UTC 15 February 2019
Temperature: 9.0°C (48°F)
Dewpoint: 6.0°C (43°F) [RH = 81%]
Pressure (altimeter): 30.03 inches Hg (1017.0 mb)
Winds: from the WSW (240 degrees) at 8 MPH (7 knots; 3.6 m/s)
Visibility: 6 or more miles (10+ km)
Ceiling: 2600 feet AGL
Clouds: few clouds at 1000 feet AGL
broken clouds at 2600 feet AGL
Weather: no significant weather observed at this time

METAR text: UGSB 151100Z 26006KT 9999 SCT010 BKN024 09/07 Q1018 NOSIG
Conditions at: UGSB (BATUMI , GE) observed 1100 UTC 15 February 2019
Temperature: 9.0°C (48°F)
Dewpoint: 7.0°C (45°F) [RH = 87%]
Pressure (altimeter): 30.06 inches Hg (1018.0 mb)
Winds: from the W (260 degrees) at 7 MPH (6 knots; 3.1 m/s)
Visibility: 6 or more miles (10+ km)
Ceiling: 2400 feet AGL
Clouds: scattered clouds at 1000 feet AGL
broken clouds at 2400 feet AGL
Weather: no significant weather observed at this time

METAR text: UGSB 151030Z 25008KT 9999 SCT010 BKN025 09/07 Q1018 NOSIG
Conditions at: UGSB (BATUMI , GE) observed 1030 UTC 15 February 2019
Temperature: 9.0°C (48°F)
Dewpoint: 7.0°C (45°F) [RH = 87%]
Pressure (altimeter): 30.06 inches Hg (1018.0 mb)
Winds: from the WSW (250 degrees) at 9 MPH (8 knots; 4.1 m/s)
Visibility: 6 or more miles (10+ km)
Ceiling: 2500 feet AGL
Clouds: scattered clouds at 1000 feet AGL
broken clouds at 2500 feet AGL
Weather: no significant weather observed at this time

METAR text: UGSB 151000Z 25008KT 9999 SCT011 BKN025 09/07 Q1018 R13/1///60 NOSIG
Conditions at: UGSB (BATUMI , GE) observed 1000 UTC 15 February 2019
Temperature: 9.0°C (48°F)
Dewpoint: 7.0°C (45°F) [RH = 87%]
Pressure (altimeter): 30.06 inches Hg (1018.0 mb)
Winds: from the WSW (250 degrees) at 9 MPH (8 knots; 4.1 m/s)
Visibility: 6 or more miles (10+ km)
Ceiling: 2500 feet AGL
Clouds: scattered clouds at 1100 feet AGL
broken clouds at 2500 feet AGL
Weather: no significant weather observed at this time

METAR text: UGSB 150930Z 25006KT 9999 FEW012 BKN025 09/07 Q1018 R13/1///60 NOSIG
Conditions at: UGSB (BATUMI , GE) observed 0930 UTC 15 February 2019
Temperature: 9.0°C (48°F)
Dewpoint: 7.0°C (45°F) [RH = 87%]
Pressure (altimeter): 30.06 inches Hg (1018.0 mb)
Winds: from the WSW (250 degrees) at 7 MPH (6 knots; 3.1 m/s)
Visibility: 6 or more miles (10+ km)
Ceiling: 2500 feet AGL
Clouds: few clouds at 1200 feet AGL
broken clouds at 2500 feet AGL
Weather: no significant weather observed at this time

METAR text: UGSB 150900Z 24006KT 9999 FEW013 BKN025 09/07 Q1018 R13/1///60 NOSIG
Conditions at: UGSB (BATUMI , GE) observed 0900 UTC 15 February 2019
Temperature: 9.0°C (48°F)
Dewpoint: 7.0°C (45°F) [RH = 87%]
Pressure (altimeter): 30.06 inches Hg (1018.0 mb)
Winds: from the WSW (240 degrees) at 7 MPH (6 knots; 3.1 m/s)
Visibility: 6 or more miles (10+ km)
Ceiling: 2500 feet AGL
Clouds: few clouds at 1300 feet AGL
broken clouds at 2500 feet AGL
Weather: no significant weather observed at this time

METAR text: UGSB 150830Z 25006KT 9999 FEW016 SCT025 09/07 Q1018 R13/1///60 NOSIG
Conditions at: UGSB (BATUMI , GE) observed 0830 UTC 15 February 2019
Temperature: 9.0°C (48°F)
Dewpoint: 7.0°C (45°F) [RH = 87%]
Pressure (altimeter): 30.06 inches Hg (1018.0 mb)
Winds: from the WSW (250 degrees) at 7 MPH (6 knots; 3.1 m/s)
Visibility: 6 or more miles (10+ km)
Ceiling: at least 12,000 feet AGL
Clouds: few clouds at 1600 feet AGL
scattered clouds at 2500 feet AGL
Weather: no significant weather observed at this time

METAR text: UGSB 150800Z 25006KT 9999 SCT023 09/06 Q1018 R13/1///60 NOSIG
Conditions at: UGSB (BATUMI , GE) observed 0800 UTC 15 February 2019
Temperature: 9.0°C (48°F)
Dewpoint: 6.0°C (43°F) [RH = 81%]
Pressure (altimeter): 30.06 inches Hg (1018.0 mb)
Winds: from the WSW (250 degrees) at 7 MPH (6 knots; 3.1 m/s)
Visibility: 6 or more miles (10+ km)
Ceiling: at least 12,000 feet AGL
Clouds: scattered clouds at 2300 feet AGL
Weather: no significant weather observed at this time

METAR text: UGSB 150730Z 25005KT 220V280 9999 SCT023 09/07 Q1018 R13/1///60 NOSIG
Conditions at: UGSB (BATUMI , GE) observed 0730 UTC 15 February 2019
Temperature: 9.0°C (48°F)
Dewpoint: 7.0°C (45°F) [RH = 87%]
Pressure (altimeter): 30.06 inches Hg (1018.0 mb)
Winds: from the WSW (250 degrees) at 6 MPH (5 knots; 2.6 m/s)
Visibility: 6 or more miles (10+ km)
Ceiling: at least 12,000 feet AGL
Clouds: scattered clouds at 2300 feet AGL
Weather: no significant weather observed at this time

METAR text: UGSB 150700Z 22005KT 190V250 9999 FEW014 SCT040 09/06 Q1018 R13/1///60 NOSIG
Conditions at: UGSB (BATUMI , GE) observed 0700 UTC 15 February 2019
Temperature: 9.0°C (48°F)
Dewpoint: 6.0°C (43°F) [RH = 81%]
Pressure (altimeter): 30.06 inches Hg (1018.0 mb)
Winds: from the SW (220 degrees) at 6 MPH (5 knots; 2.6 m/s)
Visibility: 6 or more miles (10+ km)
Ceiling: at least 12,000 feet AGL
Clouds: few clouds at 1400 feet AGL
scattered clouds at 4000 feet AGL
Weather: no significant weather observed at this time

METAR text: UGSB 150630Z 17003KT 130V190 9999 FEW014 SCT034 08/07 Q1018 R13/2///55 NOSIG
Conditions at: UGSB (BATUMI , GE) observed 0630 UTC 15 February 2019
Temperature: 8.0°C (46°F)
Dewpoint: 7.0°C (45°F) [RH = 93%]
Pressure (altimeter): 30.06 inches Hg (1018.0 mb)
Winds: from the S (170 degrees) at 3 MPH (3 knots; 1.5 m/s)
Visibility: 6 or more miles (10+ km)
Ceiling: at least 12,000 feet AGL
Clouds: few clouds at 1400 feet AGL
scattered clouds at 3400 feet AGL
Weather: no significant weather observed at this time

METAR text: UGSB 150600Z 14003KT 110V170 9999 FEW014 SCT033 08/07 Q1018 R13/2///55 NOSIG
Conditions at: UGSB (BATUMI , GE) observed 0600 UTC 15 February 2019
Temperature: 8.0°C (46°F)
Dewpoint: 7.0°C (45°F) [RH = 93%]
Pressure (altimeter): 30.06 inches Hg (1018.0 mb)
Winds: from the SE (140 degrees) at 3 MPH (3 knots; 1.5 m/s)
Visibility: 6 or more miles (10+ km)
Ceiling: at least 12,000 feet AGL
Clouds: few clouds at 1400 feet AGL
scattered clouds at 3300 feet AGL
Weather: no significant weather observed at this time

METAR text: UGSB 150530Z 13003KT 9999 FEW015 BKN030 07/07 Q1018 R13/2///55 NOSIG
Conditions at: UGSB (BATUMI , GE) observed 0530 UTC 15 February 2019
Temperature: 7.0°C (45°F)
Dewpoint: 7.0°C (45°F) [RH = 100%]
Pressure (altimeter): 30.06 inches Hg (1018.0 mb)
Winds: from the SE (130 degrees) at 3 MPH (3 knots; 1.5 m/s)
Visibility: 6 or more miles (10+ km)
Ceiling: 3000 feet AGL
Clouds: few clouds at 1500 feet AGL
broken clouds at 3000 feet AGL
Weather: no significant weather observed at this time

METAR text: UGSB 150500Z 13003KT 9999 FEW013 BKN030 07/06 Q1018 R13/////// NOSIG
Conditions at: UGSB (BATUMI , GE) observed 0500 UTC 15 February 2019
Temperature: 7.0°C (45°F)
Dewpoint: 6.0°C (43°F) [RH = 93%]
Pressure (altimeter): 30.06 inches Hg (1018.0 mb)
Winds: from the SE (130 degrees) at 3 MPH (3 knots; 1.5 m/s)
Visibility: 6 or more miles (10+ km)
Ceiling: 3000 feet AGL
Clouds: few clouds at 1300 feet AGL
broken clouds at 3000 feet AGL
Weather: no significant weather observed at this time

METAR text: UGSB 150430Z 13004KT 9999 BKN030 06/06 Q1017 R13/////// NOSIG
Conditions at: UGSB (BATUMI , GE) observed 0430 UTC 15 February 2019
Temperature: 6.0°C (43°F)
Dewpoint: 6.0°C (43°F) [RH = 100%]
Pressure (altimeter): 30.03 inches Hg (1017.0 mb)
Winds: from the SE (130 degrees) at 5 MPH (4 knots; 2.1 m/s)
Visibility: 6 or more miles (10+ km)
Ceiling: 3000 feet AGL
Clouds: broken clouds at 3000 feet AGL
Weather: no significant weather observed at this time

METAR text: UGSB 150400Z 13003KT 9999 BKN032 06/06 Q1017 R13/////// NOSIG
Conditions at: UGSB (BATUMI , GE) observed 0400 UTC 15 February 2019
Temperature: 6.0°C (43°F)
Dewpoint: 6.0°C (43°F) [RH = 100%]
Pressure (altimeter): 30.03 inches Hg (1017.0 mb)
Winds: from the SE (130 degrees) at 3 MPH (3 knots; 1.5 m/s)
Visibility: 6 or more miles (10+ km)
Ceiling: 3200 feet AGL
Clouds: broken clouds at 3200 feet AGL
Weather: no significant weather observed at this time

METAR text: UGSB 150330Z 14002KT 7000 -DZ BKN031 07/06 Q1017 R13/////// NOSIG
Conditions at: UGSB (BATUMI , GE) observed 0330 UTC 15 February 2019
Temperature: 7.0°C (45°F)
Dewpoint: 6.0°C (43°F) [RH = 93%]
Pressure (altimeter): 30.03 inches Hg (1017.0 mb)
Winds: from the SE (140 degrees) at 2 MPH (2 knots; 1.0 m/s)
Visibility: 4 miles ( 7 km)
Ceiling: 3100 feet AGL
Clouds: broken clouds at 3100 feet AGL
Weather: -DZ  (light drizzle)

METAR text: UGSB 150300Z AUTO 14002KT 7000 -DZ BKN030 OVC034 07/06 Q1017 R13/////// NOSIG
Conditions at: UGSB (BATUMI , GE) observed 0300 UTC 15 February 2019
Temperature: 7.0°C (45°F)
Dewpoint: 6.0°C (43°F) [RH = 93%]
Pressure (altimeter): 30.03 inches Hg (1017.0 mb)
Winds: from the SE (140 degrees) at 2 MPH (2 knots; 1.0 m/s)
Visibility: 4 miles ( 7 km)
Ceiling: 3000 feet AGL
Clouds: broken clouds at 3000 feet AGL
overcast cloud deck at 3400 feet AGL
Weather: -DZ  (light drizzle)

METAR text: UGSB 150230Z AUTO 13002KT 6000 DZ BR OVC033 07/06 Q1017 R13/////// NOSIG
Conditions at: UGSB (BATUMI , GE) observed 0230 UTC 15 February 2019
Temperature: 7.0°C (45°F)
Dewpoint: 6.0°C (43°F) [RH = 93%]
Pressure (altimeter): 30.03 inches Hg (1017.0 mb)
Winds: from the SE (130 degrees) at 2 MPH (2 knots; 1.0 m/s)
Visibility: 4 miles ( 6 km)
Ceiling: 3300 feet AGL
Clouds: overcast cloud deck at 3300 feet AGL
Weather: DZ BR  (moderate drizzle, mist)

METAR text: UGSB 150200Z AUTO 12003KT 6000 -DZ BR FEW026 OVC030 07/06 Q1017 R13/////// NOSIG
Conditions at: UGSB (BATUMI , GE) observed 0200 UTC 15 February 2019
Temperature: 7.0°C (45°F)
Dewpoint: 6.0°C (43°F) [RH = 93%]
Pressure (altimeter): 30.03 inches Hg (1017.0 mb)
Winds: from the ESE (120 degrees) at 3 MPH (3 knots; 1.5 m/s)
Visibility: 4 miles ( 6 km)
Ceiling: 3000 feet AGL
Clouds: few clouds at 2600 feet AGL
overcast cloud deck at 3000 feet AGL
Weather: -DZ BR  (light drizzle, mist)

METAR text: UGSB 150130Z AUTO 13002KT 6000 -RA BKN023 OVC031 07/06 Q1017 R13/////// NOSIG
Conditions at: UGSB (BATUMI , GE) observed 0130 UTC 15 February 2019
Temperature: 7.0°C (45°F)
Dewpoint: 6.0°C (43°F) [RH = 93%]
Pressure (altimeter): 30.03 inches Hg (1017.0 mb)
Winds: from the SE (130 degrees) at 2 MPH (2 knots; 1.0 m/s)
Visibility: 4 miles ( 6 km)
Ceiling: 2300 feet AGL
Clouds: broken clouds at 2300 feet AGL
overcast cloud deck at 3100 feet AGL
Weather: -RA  (light rain)

METAR text: UGSB 150100Z 13002KT 7000 -RA FEW019 BKN032 07/06 Q1017 R13/////// NOSIG
Conditions at: UGSB (BATUMI , GE) observed 0100 UTC 15 February 2019
Temperature: 7.0°C (45°F)
Dewpoint: 6.0°C (43°F) [RH = 93%]
Pressure (altimeter): 30.03 inches Hg (1017.0 mb)
Winds: from the SE (130 degrees) at 2 MPH (2 knots; 1.0 m/s)
Visibility: 4 miles ( 7 km)
Ceiling: 3200 feet AGL
Clouds: few clouds at 1900 feet AGL
broken clouds at 3200 feet AGL
Weather: -RA  (light rain)

METAR text: UGSB 150030Z 10003KT 9999 FEW017 BKN034 07/06 Q1017 R13/////// NOSIG
Conditions at: UGSB (BATUMI , GE) observed 0030 UTC 15 February 2019
Temperature: 7.0°C (45°F)
Dewpoint: 6.0°C (43°F) [RH = 93%]
Pressure (altimeter): 30.03 inches Hg (1017.0 mb)
Winds: from the E (100 degrees) at 3 MPH (3 knots; 1.5 m/s)
Visibility: 6 or more miles (10+ km)
Ceiling: 3400 feet AGL
Clouds: few clouds at 1700 feet AGL
broken clouds at 3400 feet AGL
Weather: no significant weather observed at this time

METAR text: UGSB 150000Z 10004KT 9999 FEW017 BKN032 07/06 Q1018 R13/////// NOSIG
Conditions at: UGSB (BATUMI , GE) observed 0000 UTC 15 February 2019
Temperature: 7.0°C (45°F)
Dewpoint: 6.0°C (43°F) [RH = 93%]
Pressure (altimeter): 30.06 inches Hg (1018.0 mb)
Winds: from the E (100 degrees) at 5 MPH (4 knots; 2.1 m/s)
Visibility: 6 or more miles (10+ km)
Ceiling: 3200 feet AGL
Clouds: few clouds at 1700 feet AGL
broken clouds at 3200 feet AGL
Weather: no significant weather observed at this time

METAR text: UGSB 142300Z 06004KT 9999 FEW016 BKN036 07/06 Q1018 R13/////// NOSIG
Conditions at: UGSB (BATUMI , GE) observed 2300 UTC 14 February 2019
Temperature: 7.0°C (45°F)
Dewpoint: 6.0°C (43°F) [RH = 93%]
Pressure (altimeter): 30.06 inches Hg (1018.0 mb)
Winds: from the ENE (60 degrees) at 5 MPH (4 knots; 2.1 m/s)
Visibility: 6 or more miles (10+ km)
Ceiling: 3600 feet AGL
Clouds: few clouds at 1600 feet AGL
broken clouds at 3600 feet AGL
Weather: no significant weather observed at this time

METAR text: UGSB 142230Z 09003KT 9000 SCT016 BKN033 07/06 Q1018 R13/////// NOSIG
Conditions at: UGSB (BATUMI , GE) observed 2230 UTC 14 February 2019
Temperature: 7.0°C (45°F)
Dewpoint: 6.0°C (43°F) [RH = 93%]
Pressure (altimeter): 30.06 inches Hg (1018.0 mb)
Winds: from the E (90 degrees) at 3 MPH (3 knots; 1.5 m/s)
Visibility: 6 miles ( 9 km)
Ceiling: 3300 feet AGL
Clouds: scattered clouds at 1600 feet AGL
broken clouds at 3300 feet AGL
Weather: no significant weather observed at this time

METAR text: UGSB 142200Z 10004KT 8000 -RA SCT016 BKN027 07/06 Q1018 R13/////// NOSIG
Conditions at: UGSB (BATUMI , GE) observed 2200 UTC 14 February 2019
Temperature: 7.0°C (45°F)
Dewpoint: 6.0°C (43°F) [RH = 93%]
Pressure (altimeter): 30.06 inches Hg (1018.0 mb)
Winds: from the E (100 degrees) at 5 MPH (4 knots; 2.1 m/s)
Visibility: 5 miles ( 8 km)
Ceiling: 2700 feet AGL
Clouds: scattered clouds at 1600 feet AGL
broken clouds at 2700 feet AGL
Weather: -RA  (light rain)

METAR text: UGSB 142130Z 12004KT 6000 -RA SCT016 BKN029 07/07 Q1018 R13/////// NOSIG
Conditions at: UGSB (BATUMI , GE) observed 2130 UTC 14 February 2019
Temperature: 7.0°C (45°F)
Dewpoint: 7.0°C (45°F) [RH = 100%]
Pressure (altimeter): 30.06 inches Hg (1018.0 mb)
Winds: from the ESE (120 degrees) at 5 MPH (4 knots; 2.1 m/s)
Visibility: 4 miles ( 6 km)
Ceiling: 2900 feet AGL
Clouds: scattered clouds at 1600 feet AGL
broken clouds at 2900 feet AGL
Weather: -RA  (light rain)

METAR text: UGSB 142100Z 09003KT 6000 -RA SCT014 BKN022 07/07 Q1018 R13/////// NOSIG
Conditions at: UGSB (BATUMI , GE) observed 2100 UTC 14 February 2019
Temperature: 7.0°C (45°F)
Dewpoint: 7.0°C (45°F) [RH = 100%]
Pressure (altimeter): 30.06 inches Hg (1018.0 mb)
Winds: from the E (90 degrees) at 3 MPH (3 knots; 1.5 m/s)
Visibility: 4 miles ( 6 km)
Ceiling: 2200 feet AGL
Clouds: scattered clouds at 1400 feet AGL
broken clouds at 2200 feet AGL
Weather: -RA  (light rain)

METAR text: UGSB 142030Z 18002KT 9999 -RA SCT014 BKN025 08/07 Q1018 R13/////// NOSIG
Conditions at: UGSB (BATUMI , GE) observed 2030 UTC 14 February 2019
Temperature: 8.0°C (46°F)
Dewpoint: 7.0°C (45°F) [RH = 93%]
Pressure (altimeter): 30.06 inches Hg (1018.0 mb)
Winds: from the S (180 degrees) at 2 MPH (2 knots; 1.0 m/s)
Visibility: 6 or more miles (10+ km)
Ceiling: 2500 feet AGL
Clouds: scattered clouds at 1400 feet AGL
broken clouds at 2500 feet AGL
Weather: -RA  (light rain)

METAR text: UGSB 142000Z 23003KT 180V270 9999 -RA SCT015 BKN034 08/06 Q1018 NOSIG
Conditions at: UGSB (BATUMI , GE) observed 2000 UTC 14 February 2019
Temperature: 8.0°C (46°F)
Dewpoint: 6.0°C (43°F) [RH = 87%]
Pressure (altimeter): 30.06 inches Hg (1018.0 mb)
Winds: from the SW (230 degrees) at 3 MPH (3 knots; 1.5 m/s)
Visibility: 6 or more miles (10+ km)
Ceiling: 3400 feet AGL
Clouds: scattered clouds at 1500 feet AGL
broken clouds at 3400 feet AGL
Weather: -RA  (light rain)

METAR text: UGSB 141930Z 22004KT 9999 SCT014 BKN035 08/06 Q1018 NOSIG
Conditions at: UGSB (BATUMI , GE) observed 1930 UTC 14 February 2019
Temperature: 8.0°C (46°F)
Dewpoint: 6.0°C (43°F) [RH = 87%]
Pressure (altimeter): 30.06 inches Hg (1018.0 mb)
Winds: from the SW (220 degrees) at 5 MPH (4 knots; 2.1 m/s)
Visibility: 6 or more miles (10+ km)
Ceiling: 3500 feet AGL
Clouds: scattered clouds at 1400 feet AGL
broken clouds at 3500 feet AGL
Weather: no significant weather observed at this time

METAR text: UGSB 141900Z 29002KT 9999 FEW016 BKN033 09/05 Q1018 NOSIG
Conditions at: UGSB (BATUMI , GE) observed 1900 UTC 14 February 2019
Temperature: 9.0°C (48°F)
Dewpoint: 5.0°C (41°F) [RH = 76%]
Pressure (altimeter): 30.06 inches Hg (1018.0 mb)
Winds: from the WNW (290 degrees) at 2 MPH (2 knots; 1.0 m/s)
Visibility: 6 or more miles (10+ km)
Ceiling: 3300 feet AGL
Clouds: few clouds at 1600 feet AGL
broken clouds at 3300 feet AGL
Weather: no significant weather observed at this time

METAR text: UGSB 141830Z 29003KT 9999 SCT016 BKN028 09/06 Q1018 NOSIG
Conditions at: UGSB (BATUMI , GE) observed 1830 UTC 14 February 2019
Temperature: 9.0°C (48°F)
Dewpoint: 6.0°C (43°F) [RH = 81%]
Pressure (altimeter): 30.06 inches Hg (1018.0 mb)
Winds: from the WNW (290 degrees) at 3 MPH (3 knots; 1.5 m/s)
Visibility: 6 or more miles (10+ km)
Ceiling: 2800 feet AGL
Clouds: scattered clouds at 1600 feet AGL
broken clouds at 2800 feet AGL
Weather: no significant weather observed at this time

METAR text: UGSB 141800Z 23003KT 9999 SCT015 BKN043 09/06 Q1018 NOSIG
Conditions at: UGSB (BATUMI , GE) observed 1800 UTC 14 February 2019
Temperature: 9.0°C (48°F)
Dewpoint: 6.0°C (43°F) [RH = 81%]
Pressure (altimeter): 30.06 inches Hg (1018.0 mb)
Winds: from the SW (230 degrees) at 3 MPH (3 knots; 1.5 m/s)
Visibility: 6 or more miles (10+ km)
Ceiling: 4300 feet AGL
Clouds: scattered clouds at 1500 feet AGL
broken clouds at 4300 feet AGL
Weather: no significant weather observed at this time

Forecast for: UGSB (BATUMI , GE)
Text: TAF UGSB 160500Z 1606/1706 25016KT 7000 -RA SCT012 BKN020 TX09/1610Z TN05/1700Z
Forecast period: 0600 UTC 16 February 2019 to 0600 UTC 17 February 2019
Forecast type: FROM: standard forecast or significant change
Winds: from the WSW (250 degrees) at 18 MPH (16 knots; 8.2 m/s)
Visibility: 4 miles (7 km)
Ceiling: 2000 feet AGL
Clouds: scattered clouds at 1200 feet AGL
broken clouds at 2000 feet AGL
Weather: -RA  (light rain)
Text: TEMPO 1606/1618 25026KT 4000 SHRA SCT007 OVC017CB
Forecast period: 0600 to 1800 UTC 16 February 2019
Forecast type: TEMPORARY: The following changes expected for less than half the time period
Winds: from the WSW (250 degrees) at 30 MPH (26 knots; 13.4 m/s)
Visibility: 2.49 miles (4.01 km)
Ceiling: 1700 feet AGL
Clouds: scattered clouds at 700 feet AGL
overcast cloud deck at 1700 feet AGL
Weather: SHRA  (rain showers)
Text: TEMPO 1618/1706 25022G35KT 4000 SHRA SCT007 OVC017CB
Forecast period: 1800 UTC 16 February 2019 to 0600 UTC 17 February 2019
Forecast type: TEMPORARY: The following changes expected for less than half the time period
Winds: from the WSW (250 degrees) at 25 MPH (22 knots; 11.3 m/s)
gusting to 40 MPH (35 knots; 18.0 m/s)
Visibility: 2.49 miles (4.01 km)
Ceiling: 1700 feet AGL
Clouds: scattered clouds at 700 feet AGL
overcast cloud deck at 1700 feet AGL
Weather: SHRA  (rain showers)